Time;durP1;ratioP1;P1;durP2;ratioP2;P2;SDS_P1;SDS_P2;PMS_P1;PMS_P2;Temp;Humidity;BMP_temperature;BMP_pressure;BME280_temperature;BME280_humidity;BME280_pressure;Samples;Min_cycle;Max_cycle;Signal;HPM_P1;HPM_P2
2021/06/18 00:01:16;;;;;;;16.33;14.80;;;;;;;-139.48;100.00;61774.03;5072089;28;20292;-71
2021/06/18 00:04:00;;;;;;;18.73;15.43;;;;;;;-139.48;100.00;61774.03;5075204;28;20405;-71
2021/06/18 00:06:43;;;;;;;17.75;16.00;;;;;;;-139.48;100.00;61774.03;5076274;28;20433;-72
2021/06/18 00:09:27;;;;;;;17.45;15.75;;;;;;;-139.48;100.00;61774.03;5062057;28;20093;-71
2021/06/18 00:12:12;;;;;;;20.60;15.95;;;;;;;-139.48;100.00;61774.03;5076361;28;20479;-71
2021/06/18 00:14:59;;;;;;;16.73;14.93;;;;;;;-139.48;100.00;61774.03;5077252;28;20473;-71
2021/06/18 00:17:43;;;;;;;23.15;16.40;;;;;;;-139.48;100.00;61774.03;5062819;28;20059;-71
2021/06/18 00:20:27;;;;;;;;;;;;;;;-139.48;100.00;61774.03;5076164;28;20051;-71
2021/06/18 00:23:11;;;;;;;20.90;17.50;;;;;;;-139.48;100.00;61774.03;5075976;28;19918;-71
2021/06/18 00:25:55;;;;;;;;;;;;;;;-139.48;100.00;61774.03;5077456;28;20047;-71
2021/06/18 00:28:39;;;;;;;18.58;15.55;;;;;;;-139.48;100.00;61774.03;5076734;28;20293;-71
2021/06/18 00:31:23;;;;;;;17.13;15.27;;;;;;;-139.48;100.00;61774.03;5061737;28;20132;-71
2021/06/18 00:34:07;;;;;;;;;;;;;;;-139.48;100.00;61774.03;5075988;28;20135;-71
2021/06/18 00:36:51;;;;;;;18.00;15.93;;;;;;;-139.48;100.00;61774.03;5061729;28;20383;-71
2021/06/18 00:39:35;;;;;;;17.00;15.20;;;;;;;-139.48;100.00;61774.03;5076623;28;20523;-71
2021/06/18 00:42:19;;;;;;;17.92;16.15;;;;;;;-139.48;100.00;61774.03;5075775;28;20055;-72
2021/06/18 00:45:04;;;;;;;18.00;16.30;;;;;;;-139.48;100.00;61774.03;5075763;28;20132;-71
2021/06/18 00:47:50;;;;;;;21.75;17.05;;;;;;;-139.48;100.00;61774.03;5075559;28;20067;-71
2021/06/18 00:50:34;;;;;;;18.05;15.52;;;;;;;-139.48;100.00;61774.03;5061234;28;20535;-72
2021/06/18 00:53:18;;;;;;;18.73;16.80;;;;;;;-139.48;100.00;61774.03;5076162;28;20087;-71
2021/06/18 00:56:02;;;;;;;17.83;15.80;;;;;;;-139.48;100.00;61774.03;5076554;28;20087;-71
2021/06/18 00:58:47;;;;;;;18.70;16.15;;;;;;;-139.48;100.00;61774.03;5075337;28;20052;-71
2021/06/18 01:01:31;;;;;;;19.83;17.80;;;;;;;-139.48;100.00;61774.03;5061323;28;20417;-71
2021/06/18 01:04:14;;;;;;;18.83;16.90;;;;;;;-139.48;100.00;61774.03;5076360;28;20405;-70
2021/06/18 01:07:01;;;;;;;;;;;;;;;-139.48;100.00;61774.03;5075721;28;20566;-71
2021/06/18 01:10:03;;;;;;;19.27;17.42;;;;;;;-139.48;100.00;61774.03;5061167;28;20014;-71
2021/06/18 01:12:59;;;;;;;18.08;16.27;;;;;;;-139.48;100.00;61774.03;5074893;28;20052;-71
2021/06/18 01:16:13;;;;;;;19.73;16.60;;;;;;;-139.48;100.00;61774.03;5075851;28;20051;-71
2021/06/18 01:19:10;;;;;;;18.13;16.35;;;;;;;-139.48;100.00;61774.03;5075784;28;20528;-71
2021/06/18 01:22:04;;;;;;;18.67;16.77;;;;;;;-139.48;100.00;61774.03;5075743;28;20074;-71
2021/06/18 01:25:08;;;;;;;19.77;17.73;;;;;;;-139.48;100.00;61774.03;5074737;28;20471;-71
2021/06/18 01:28:03;;;;;;;19.70;17.60;;;;;;;-139.48;100.00;61774.03;5075881;28;20466;-70
2021/06/18 01:30:47;;;;;;;20.42;17.85;;;;;;;-139.48;100.00;61774.03;5074878;28;20524;-71
2021/06/18 01:33:32;;;;;;;21.23;18.75;;;;;;;-139.48;100.00;61774.03;5074884;28;20181;-71
2021/06/18 01:36:16;;;;;;;19.08;16.95;;;;;;;-139.48;100.00;61774.03;5074512;28;20051;-70
2021/06/18 01:39:02;;;;;;;24.17;19.00;;;;;;;-139.48;100.00;61774.03;5074393;28;20052;-71
2021/06/18 01:41:47;;;;;;;21.42;18.50;;;;;;;-139.48;100.00;61774.03;5075375;28;20102;-71
2021/06/18 01:44:31;;;;;;;20.13;18.00;;;;;;;-139.48;100.00;61774.03;5060440;28;20127;-71
2021/06/18 01:47:16;;;;;;;22.20;17.60;;;;;;;-139.48;100.00;61774.03;5060382;28;20051;-71
2021/06/18 01:50:02;;;;;;;20.02;18.02;;;;;;;-139.48;100.00;61774.03;5075246;28;20047;-71
2021/06/18 01:52:51;;;;;;;20.10;17.05;;;;;;;-139.48;100.00;61774.03;5074120;28;20109;-71
2021/06/18 01:55:36;;;;;;;21.27;17.67;;;;;;;-139.48;100.00;61774.03;5060529;28;20101;-71
2021/06/18 01:58:21;;;;;;;20.70;18.60;;;;;;;-139.48;100.00;61774.03;5074462;28;20055;-71
2021/06/18 02:01:05;;;;;;;19.42;17.42;;;;;;;-139.48;100.00;61774.03;5075144;28;20043;-71
2021/06/18 02:03:50;;;;;;;19.25;17.02;;;;;;;-139.48;100.00;61774.03;5060247;28;20067;-71
2021/06/18 02:06:37;;;;;;;23.75;18.50;;;;;;;-139.48;100.00;61774.03;5074186;28;20058;-71
2021/06/18 02:09:22;;;;;;;21.90;19.60;;;;;;;-139.48;100.00;61774.03;5073862;28;20052;-71
2021/06/18 02:12:07;;;;;;;21.58;18.90;;;;;;;-139.48;100.00;61774.03;5059682;28;20124;-71
2021/06/18 02:14:52;;;;;;;21.92;19.67;;;;;;;-139.48;100.00;61774.03;5059869;28;20043;-70
2021/06/18 02:17:39;;;;;;;20.75;18.60;;;;;;;-139.48;100.00;61774.03;5073960;28;20059;-71
2021/06/18 02:20:23;;;;;;;23.15;18.48;;;;;;;-139.48;100.00;61774.03;5073520;28;20131;-71
2021/06/18 02:23:09;;;;;;;24.83;19.63;;;;;;;-139.48;100.00;61774.03;5073857;28;20043;-72
2021/06/18 02:25:53;;;;;;;21.27;19.15;;;;;;;-139.48;100.00;61774.03;5059364;28;20044;-71
2021/06/18 02:28:37;;;;;;;23.00;19.30;;;;;;;-139.48;100.00;61774.03;5059612;28;20050;-71
2021/06/18 02:31:22;;;;;;;20.35;18.17;;;;;;;-139.48;100.00;61774.03;5073685;28;20098;-71
2021/06/18 02:34:07;;;;;;;19.88;17.42;;;;;;;-139.48;100.00;61774.03;5073563;28;20050;-71
2021/06/18 02:36:51;;;;;;;21.45;18.17;;;;;;;-139.48;100.00;61774.03;5073619;28;20048;-71
2021/06/18 02:39:35;;;;;;;21.00;18.00;;;;;;;-139.48;100.00;61774.03;5073445;28;20451;-71
2021/06/18 02:42:19;;;;;;;19.13;17.13;;;;;;;-139.48;100.00;61774.03;5073480;28;20189;-71
2021/06/18 02:45:03;;;;;;;25.58;18.42;;;;;;;-139.48;100.00;61774.03;5073447;28;20055;-71
2021/06/18 02:47:55;;;;;;;24.77;17.30;;;;;;;-139.48;100.00;61774.03;5073379;28;20090;-71
2021/06/18 02:50:54;;;;;;;20.77;17.73;;;;;;;-139.48;100.00;61774.03;5059124;28;20048;-71
2021/06/18 02:54:09;;;;;;;21.27;17.83;;;;;;;-139.48;100.00;61774.03;5073242;28;20097;-71
2021/06/18 02:57:07;;;;;;;21.38;19.17;;;;;;;-139.48;100.00;61774.03;5073903;28;20473;-71
2021/06/18 02:59:54;;;;;;;21.80;16.80;;;;;;;-139.48;100.00;61774.03;5073128;28;20562;-71
2021/06/18 03:02:55;;;;;;;18.23;16.40;;;;;;;-139.48;100.00;61774.03;5073064;28;20128;-71
2021/06/18 03:05:39;;;;;;;23.70;17.88;;;;;;;-139.48;100.00;61774.03;5058953;28;20043;-71
2021/06/18 03:08:24;;;;;;;20.52;17.55;;;;;;;-139.48;100.00;61774.03;5058687;28;20051;-71
2021/06/18 03:11:09;;;;;;;23.13;18.77;;;;;;;-139.48;100.00;61774.03;5072935;28;20118;-71
2021/06/18 03:13:56;;;;;;;19.70;17.33;;;;;;;-139.48;100.00;61774.03;5058797;28;20492;-71
2021/06/18 03:16:41;;;;;;;21.67;18.05;;;;;;;-139.48;100.00;61774.03;5058590;28;20128;-68
2021/06/18 03:19:29;;;;;;;21.08;16.85;;;;;;;-139.48;100.00;61774.03;5082348;22;20055;-67
2021/06/18 03:22:15;;;;;;;20.13;16.88;;;;;;;-139.48;100.00;61774.03;5072795;28;20039;-67
2021/06/18 03:24:59;;;;;;;18.50;16.48;;;;;;;-139.48;100.00;61774.03;5072678;28;20052;-67
2021/06/18 03:27:44;;;;;;;19.10;16.60;;;;;;;-139.48;100.00;61774.03;5072659;28;20047;-67
2021/06/18 03:30:29;;;;;;;19.63;16.60;;;;;;;-139.48;100.00;61774.03;5072336;28;20071;-67
2021/06/18 03:33:13;;;;;;;19.98;17.60;;;;;;;-139.48;100.00;61774.03;5086660;28;20553;-68
2021/06/18 03:35:58;;;;;;;20.75;16.70;;;;;;;-139.48;100.00;61774.03;5073622;28;20055;-67
2021/06/18 03:38:43;;;;;;;21.30;17.15;;;;;;;-139.48;100.00;61774.03;5072641;28;20059;-67
2021/06/18 03:41:27;;;;;;;17.73;15.70;;;;;;;-139.48;100.00;61774.03;5072656;28;20189;-68
2021/06/18 03:44:11;;;;;;;17.50;15.80;;;;;;;-139.48;100.00;61774.03;5072479;28;20052;-67
2021/06/18 03:46:56;;;;;;;17.65;15.75;;;;;;;-139.48;100.00;61774.03;5072472;28;20097;-68
2021/06/18 03:49:42;;;;;;;23.33;16.00;;;;;;;-139.48;100.00;61774.03;5072112;28;20105;-66
2021/06/18 03:52:27;;;;;;;25.50;17.15;;;;;;;-139.48;100.00;61774.03;5072059;28;20047;-67
2021/06/18 03:55:11;;;;;;;17.45;15.68;;;;;;;-139.48;100.00;61774.03;5072438;28;20570;-67
2021/06/18 03:57:56;;;;;;;17.30;15.05;;;;;;;-139.48;100.00;61774.03;5072343;28;20492;-68
2021/06/18 04:00:42;;;;;;;17.80;14.38;;;;;;;-139.48;100.00;61774.03;5072161;28;20077;-67
2021/06/18 04:03:27;;;;;;;16.73;14.43;;;;;;;-139.48;100.00;61774.03;5072301;28;20142;-67
2021/06/18 04:06:12;;;;;;;18.92;14.27;;;;;;;-139.48;100.00;61774.03;5072225;28;20496;-67
2021/06/18 04:08:56;;;;;;;16.70;14.23;;;;;;;-139.48;100.00;61774.03;5072095;28;20129;-67
2021/06/18 04:11:40;;;;;;;16.70;14.07;;;;;;;-139.48;100.00;61774.03;5086287;28;20051;-67
2021/06/18 04:14:23;;;;;;;14.80;13.23;;;;;;;-139.48;100.00;61774.03;5072181;28;20577;-67
2021/06/18 04:17:07;;;;;;;17.35;13.05;;;;;;;-139.48;100.00;61774.03;5073179;28;20158;-67
2021/06/18 04:19:52;;;;;;;14.35;11.52;;;;;;;-139.48;100.00;61774.03;5071880;28;20515;-65
2021/06/18 04:22:36;;;;;;;16.45;12.32;;;;;;;-139.48;100.00;61774.03;5072757;28;20139;-68
2021/06/18 04:25:22;;;;;;;15.95;12.25;;;;;;;-139.48;100.00;61774.03;5086491;28;20569;-67
2021/06/18 04:28:06;;;;;;;14.00;11.25;;;;;;;-139.48;100.00;61774.03;5072048;28;20507;-67
2021/06/18 04:30:50;;;;;;;13.18;10.98;;;;;;;-139.48;100.00;61774.03;5072978;28;20050;-65
2021/06/18 04:33:34;;;;;;;;;;;;;;;-139.48;100.00;61774.03;5072366;28;20067;-66
2021/06/18 04:36:19;;;;;;;12.10;10.57;;;;;;;-139.48;100.00;61774.03;5072083;28;19920;-67
2021/06/18 04:39:05;;;;;;;13.27;11.13;;;;;;;-139.48;100.00;61774.03;5071965;28;20111;-67
2021/06/18 04:41:49;;;;;;;15.77;10.02;;;;;;;-139.48;100.00;61774.03;5086735;28;20139;-67
2021/06/18 04:44:33;;;;;;;12.93;10.05;;;;;;;-139.48;100.00;61774.03;5071923;28;20128;-67
2021/06/18 04:47:18;;;;;;;10.45;9.20;;;;;;;-139.48;100.00;61774.03;5085911;28;20051;-66
2021/06/18 04:50:03;;;;;;;14.85;9.38;;;;;;;-139.48;100.00;61774.03;5073297;28;20046;-67
2021/06/18 04:52:48;;;;;;;11.45;9.40;;;;;;;-139.48;100.00;61774.03;5075323;28;20043;-67
2021/06/18 04:55:31;;;;;;;11.10;8.70;;;;;;;-139.48;100.00;61774.03;5075479;28;20051;-67
2021/06/18 04:58:15;;;;;;;13.13;9.50;;;;;;;-139.48;100.00;61774.03;5075266;28;20051;-67
2021/06/18 05:00:59;;;;;;;12.23;8.80;;;;;;;-139.48;100.00;61774.03;5076161;28;20055;-67
2021/06/18 05:03:43;;;;;;;8.60;7.40;;;;;;;-139.48;100.00;61774.03;5076637;28;20052;-67
2021/06/18 05:06:27;;;;;;;9.32;8.23;;;;;;;-139.48;100.00;61774.03;5075250;28;20463;-67
2021/06/18 05:09:11;;;;;;;13.32;9.30;;;;;;;-139.48;100.00;61774.03;5076133;28;20113;-67
2021/06/18 05:11:55;;;;;;;13.05;9.27;;;;;;;-139.48;100.00;61774.03;5076273;28;20051;-67
2021/06/18 05:14:38;;;;;;;9.25;7.95;;;;;;;-139.48;100.00;61774.03;5075182;28;20067;-67
2021/06/18 05:17:22;;;;;;;8.48;7.68;;;;;;;-139.48;100.00;61774.03;5075014;28;20054;-67
2021/06/18 05:20:06;;;;;;;;;;;;;;;-139.48;100.00;61774.03;5075089;28;20468;-66
2021/06/18 05:22:50;;;;;;;7.17;6.47;;;;;;;-139.48;100.00;61774.03;5074818;28;20292;-67
2021/06/18 05:25:34;;;;;;;;;;;;;;;-139.48;100.00;61774.03;5075707;28;20273;-65
2021/06/18 05:28:18;;;;;;;15.80;6.97;;;;;;;-139.48;100.00;61774.03;5060867;28;20390;-65
2021/06/18 05:31:02;;;;;;;8.18;6.40;;;;;;;-139.48;100.00;61774.03;5088799;28;20083;-63
2021/06/18 05:33:46;;;;;;;11.45;6.32;;;;;;;-139.48;100.00;61774.03;5074754;28;20071;-64
2021/06/18 05:36:30;;;;;;;;;;;;;;;-139.48;100.00;61774.03;5076468;28;20048;-64
2021/06/18 05:39:15;;;;;;;5.70;5.20;;;;;;;-139.48;100.00;61774.03;5075620;28;20343;-63
2021/06/18 05:42:00;;;;;;;5.90;5.25;;;;;;;-139.48;100.00;61774.03;5074426;28;20055;-63
2021/06/18 05:44:44;;;;;;;8.18;6.13;;;;;;;-139.48;100.00;61774.03;5075640;28;20142;-66
2021/06/18 05:47:28;;;;;;;8.93;5.38;;;;;;;-139.48;100.00;61774.03;5074806;28;20051;-67
2021/06/18 05:50:12;;;;;;;;;;;;;;;-139.48;100.00;61774.03;5074912;28;20616;-67
2021/06/18 05:52:56;;;;;;;6.32;5.00;;;;;;;-139.48;100.00;61774.03;5075396;28;20277;-66
2021/06/18 05:55:40;;;;;;;7.53;5.15;;;;;;;-139.48;100.00;61774.03;5074164;28;20043;-66
2021/06/18 05:58:25;;;;;;;;;;;;;;;-139.48;100.00;61774.03;5076078;28;20043;-66
2021/06/18 06:01:09;;;;;;;5.53;4.55;;;;;;;-139.48;100.00;61774.03;5072861;28;19973;-66
2021/06/18 06:03:54;;;;;;;10.77;5.00;;;;;;;-139.48;100.00;61774.03;5075273;28;20508;-66
2021/06/18 06:06:38;;;;;;;6.85;5.35;;;;;;;-139.48;100.00;61774.03;5075218;28;20154;-66
2021/06/18 06:09:22;;;;;;;13.38;5.07;;;;;;;-139.48;100.00;61774.03;5073897;28;20051;-66
2021/06/18 06:12:06;;;;;;;12.50;4.85;;;;;;;-139.48;100.00;61774.03;5075011;28;20051;-66
2021/06/18 06:14:50;;;;;;;8.35;4.95;;;;;;;-139.48;100.00;61774.03;5075073;28;20573;-66
2021/06/18 06:17:34;;;;;;;7.93;4.80;;;;;;;-139.48;100.00;61774.03;5074864;28;20528;-67
2021/06/18 06:20:18;;;;;;;10.32;5.00;;;;;;;-139.48;100.00;61774.03;5059329;28;20055;-67
2021/06/18 06:23:02;;;;;;;;;;;;;;;-139.48;100.00;61774.03;5074318;28;20043;-67
2021/06/18 06:25:46;;;;;;;14.02;4.53;;;;;;;-139.48;100.00;61774.03;5073518;28;19919;-66
2021/06/18 06:28:30;;;;;;;8.65;4.70;;;;;;;-139.48;100.00;61774.03;5073761;28;20508;-66
2021/06/18 06:31:14;;;;;;;12.13;6.85;;;;;;;-139.48;100.00;61774.03;5073990;28;20123;-66
2021/06/18 06:33:58;;;;;;;6.00;4.97;;;;;;;-139.48;100.00;61774.03;5074565;28;20098;-66
2021/06/18 06:36:43;;;;;;;;;;;;;;;-139.48;100.00;61774.03;5074022;28;20051;-66
2021/06/18 06:39:27;;;;;;;5.90;4.18;;;;;;;-139.48;100.00;61774.03;5074216;28;19935;-67
2021/06/18 06:42:11;;;;;;;;;;;;;;;-139.48;100.00;61774.03;5075002;28;20094;-67
2021/06/18 06:44:55;;;;;;;6.90;4.50;;;;;;;-139.48;100.00;61774.03;5073169;28;20300;-67
2021/06/18 06:47:40;;;;;;;8.18;4.75;;;;;;;-139.48;100.00;61774.03;5074394;28;20114;-67
2021/06/18 06:50:24;;;;;;;7.47;4.68;;;;;;;-139.48;100.00;61774.03;5072965;28;20100;-68
2021/06/18 06:53:08;;;;;;;;;;;;;;;-139.48;100.00;61774.03;5074737;28;20083;-67
2021/06/18 06:55:52;;;;;;;9.55;6.10;;;;;;;-139.48;100.00;61774.03;5073289;28;19974;-67
2021/06/18 06:58:36;;;;;;;;;;;;;;;-139.48;100.00;61774.03;5073632;28;20082;-67
2021/06/18 07:01:20;;;;;;;7.90;5.07;;;;;;;-139.48;100.00;61774.03;5072914;28;19918;-67
2021/06/18 07:04:04;;;;;;;9.50;5.57;;;;;;;-139.48;100.00;61774.03;5073011;28;20039;-67
2021/06/18 07:06:48;;;;;;;;;;;;;;;-139.48;100.00;61774.03;5074455;28;20133;-68
2021/06/18 07:09:38;;;;;;;6.65;4.90;;;;;;;-139.48;100.00;61774.03;5073065;28;19961;-68
2021/06/18 07:12:22;;;;;;;6.40;5.30;;;;;;;-139.48;100.00;61774.03;5073357;28;20071;-66
2021/06/18 07:15:07;;;;;;;;;;;;;;;-139.48;100.00;61774.03;5073337;28;20051;-65
2021/06/18 07:17:50;;;;;;;;;;;;;;;-139.48;100.00;61774.03;5073189;28;20351;-67
2021/06/18 07:20:34;;;;;;;7.72;5.43;;;;;;;-139.48;100.00;61774.03;5073349;28;19919;-67
2021/06/18 07:23:19;;;;;;;7.65;5.30;;;;;;;-139.48;100.00;61774.03;5073023;28;20044;-66
2021/06/18 07:26:03;;;;;;;8.30;5.20;;;;;;;-139.48;100.00;61774.03;5072421;28;20051;-67
2021/06/18 07:28:47;;;;;;;7.72;5.50;;;;;;;-139.48;100.00;61774.03;5072356;28;20127;-67
2021/06/18 07:31:31;;;;;;;7.32;5.32;;;;;;;-139.48;100.00;61774.03;5086997;28;20047;-67
2021/06/18 07:34:15;;;;;;;7.75;5.15;;;;;;;-139.48;100.00;61774.03;5073630;28;20071;-67
2021/06/18 07:36:58;;;;;;;;;;;;;;;-139.48;100.00;61774.03;5073092;28;20048;-67
2021/06/18 07:39:43;;;;;;;9.55;5.45;;;;;;;-139.48;100.00;61774.03;5073460;28;19969;-67
2021/06/18 07:42:27;;;;;;;7.85;5.38;;;;;;;-139.48;100.00;61774.03;5072582;28;20043;-67
2021/06/18 07:45:12;;;;;;;9.65;5.88;;;;;;;-139.48;100.00;61774.03;5072574;28;20094;-66
2021/06/18 07:47:56;;;;;;;9.90;7.57;;;;;;;-139.48;100.00;61774.03;5073438;28;20047;-66
2021/06/18 07:50:41;;;;;;;7.60;5.22;;;;;;;-139.48;100.00;61774.03;5072197;28;20136;-67
2021/06/18 07:53:25;;;;;;;5.82;5.10;;;;;;;-139.48;100.00;61774.03;5073443;28;20412;-67
2021/06/18 07:56:09;;;;;;;9.98;5.18;;;;;;;-139.48;100.00;61774.03;5073392;28;20420;-67
2021/06/18 07:58:53;;;;;;;10.13;5.35;;;;;;;-139.48;100.00;61774.03;5072484;28;20551;-65
2021/06/18 08:01:37;;;;;;;9.52;5.55;;;;;;;-139.48;100.00;61774.03;5072582;28;20090;-64
2021/06/18 08:04:21;;;;;;;6.65;4.95;;;;;;;-139.48;100.00;61774.03;5086584;28;20101;-65
2021/06/18 08:07:05;;;;;;;8.38;5.35;;;;;;;-139.48;100.00;61774.03;5072250;28;20055;-66
2021/06/18 08:09:50;;;;;;;7.85;4.75;;;;;;;-139.48;100.00;61774.03;5071888;28;20520;-66
2021/06/18 08:12:34;;;;;;;5.68;4.60;;;;;;;-139.48;100.00;61774.03;5072153;28;20512;-65
2021/06/18 08:15:18;;;;;;;9.98;4.97;;;;;;;-139.48;100.00;61774.03;5072257;28;20184;-66
2021/06/18 08:18:02;;;;;;;12.20;6.97;;;;;;;-139.48;100.00;61774.03;5072966;28;20132;-66
2021/06/18 08:20:48;;;;;;;10.07;5.70;;;;;;;-139.48;100.00;61774.03;5072728;28;20043;-66
2021/06/18 08:23:32;;;;;;;10.88;6.15;;;;;;;-139.48;100.00;61774.03;5071871;28;20173;-66
2021/06/18 08:26:16;;;;;;;7.60;5.22;;;;;;;-139.48;100.00;61774.03;5075927;28;20123;-66
2021/06/18 08:29:00;;;;;;;9.40;5.90;;;;;;;-139.48;100.00;61774.03;5076642;28;20589;-66
2021/06/18 08:31:44;;;;;;;8.73;5.60;;;;;;;-139.48;100.00;61774.03;5076372;28;20051;-66
2021/06/18 08:34:28;;;;;;;10.57;5.88;;;;;;;-139.48;100.00;61774.03;5076597;28;20090;-66
2021/06/18 08:37:12;;;;;;;12.27;5.80;;;;;;;-139.48;100.00;61774.03;5075666;28;20144;-66
2021/06/18 08:39:56;;;;;;;10.02;6.60;;;;;;;-139.48;100.00;61774.03;5076611;28;20047;-66
2021/06/18 08:42:41;;;;;;;10.93;6.65;;;;;;;-139.48;100.00;61774.03;5077135;28;20047;-66
2021/06/18 08:45:25;;;;;;;10.65;6.47;;;;;;;-139.48;100.00;61774.03;5075890;28;20095;-67
2021/06/18 08:48:10;;;;;;;9.63;6.32;;;;;;;-139.48;100.00;61774.03;5077018;28;20087;-65
2021/06/18 08:50:54;;;;;;;7.47;6.07;;;;;;;-139.48;100.00;61774.03;5075492;28;20098;-67
2021/06/18 08:53:38;;;;;;;12.02;7.15;;;;;;;-139.48;100.00;61774.03;5075287;28;20098;-67
2021/06/18 08:56:22;;;;;;;7.55;6.25;;;;;;;-139.48;100.00;61774.03;5076469;28;20118;-67
2021/06/18 08:59:06;;;;;;;9.48;6.00;;;;;;;-139.48;100.00;61774.03;5075286;28;20047;-67
2021/06/18 09:01:50;;;;;;;9.57;6.28;;;;;;;-139.48;100.00;61774.03;5075384;28;20044;-67
2021/06/18 09:05:11;;;;;;;13.57;6.10;;;;;;;-139.48;100.00;61774.03;5061224;28;20089;-67
2021/06/18 09:08:03;;;;;;;13.73;6.40;;;;;;;-139.48;100.00;61774.03;5076281;28;20094;-67
2021/06/18 09:10:47;;;;;;;10.52;6.53;;;;;;;-139.48;100.00;61774.03;5075880;28;20102;-67
2021/06/18 09:13:33;;;;;;;10.07;6.22;;;;;;;-139.48;100.00;61774.03;5075240;28;20047;-67
2021/06/18 09:16:22;;;;;;;12.45;6.35;;;;;;;-139.48;100.00;61774.03;5076531;28;20043;-67
2021/06/18 09:19:23;;;;;;;7.80;5.93;;;;;;;-139.48;100.00;61774.03;5060884;28;20048;-67
2021/06/18 09:22:10;;;;;;;8.73;6.38;;;;;;;-139.48;100.00;61774.03;5099880;22;20086;-67
2021/06/18 09:25:03;;;;;;;12.07;7.15;;;;;;;-139.48;100.00;61774.03;5075749;28;20539;-68
2021/06/18 09:27:51;;;;;;;9.88;7.35;;;;;;;-139.48;100.00;61774.03;5074780;28;20086;-69
2021/06/18 09:30:36;;;;;;;13.45;6.90;;;;;;;-139.48;100.00;61774.03;5074843;28;20054;-68
2021/06/18 09:33:23;;;;;;;11.98;7.45;;;;;;;-139.48;100.00;61774.03;5074502;28;20524;-69
2021/06/18 09:36:08;;;;;;;13.80;8.00;;;;;;;-139.48;100.00;61774.03;5074662;28;20043;-69
2021/06/18 09:38:56;;;;;;;12.02;10.90;;;;;;;-139.48;100.00;61774.03;5074749;28;20094;-69
2021/06/18 09:41:45;;;;;;;11.30;7.28;;;;;;;-139.48;100.00;61774.03;5075435;28;20098;-68
2021/06/18 09:44:30;;;;;;;10.77;8.05;;;;;;;-139.48;100.00;61774.03;5075308;28;20461;-69
2021/06/18 09:47:20;;;;;;;11.88;8.00;;;;;;;-139.48;100.00;61774.03;5074536;28;20102;-69
2021/06/18 09:50:26;;;;;;;12.43;8.20;;;;;;;-139.48;100.00;61774.03;5074514;28;20056;-69
2021/06/18 09:53:16;;;;;;;10.98;8.38;;;;;;;-139.48;100.00;61774.03;5060083;28;20097;-69
2021/06/18 09:56:04;;;;;;;12.80;8.27;;;;;;;-139.48;100.00;61774.03;5075433;28;20097;-69
2021/06/18 09:58:48;;;;;;;10.23;7.50;;;;;;;-139.48;100.00;61774.03;5074341;28;20492;-69
2021/06/18 10:01:34;;;;;;;15.30;8.32;;;;;;;-139.48;100.00;61774.03;5073997;28;20136;-69
2021/06/18 10:04:18;;;;;;;12.15;8.57;;;;;;;-139.48;100.00;61774.03;5074270;28;20040;-69
2021/06/18 10:07:02;;;;;;;11.23;8.23;;;;;;;-139.48;100.00;61774.03;5075286;28;20171;-70
2021/06/18 10:09:47;;;;;;;10.65;7.60;;;;;;;-139.48;100.00;61774.03;5073875;28;20050;-69
2021/06/18 10:12:31;;;;;;;10.73;8.23;;;;;;;-139.48;100.00;61774.03;5075075;28;20413;-69
2021/06/18 10:15:18;;;;;;;13.70;8.48;;;;;;;-139.48;100.00;61774.03;5073796;28;20483;-69
2021/06/18 10:18:01;;;;;;;14.68;8.82;;;;;;;-139.48;100.00;61774.03;5073747;28;20047;-69
2021/06/18 10:20:46;;;;;;;8.32;7.53;;;;;;;-139.48;100.00;61774.03;5073607;28;20105;-70
2021/06/18 10:23:30;;;;;;;9.68;7.80;;;;;;;-139.48;100.00;61774.03;5074904;28;20039;-70
2021/06/18 10:26:15;;;;;;;12.50;8.55;;;;;;;-139.48;100.00;61774.03;5059705;28;20414;-69
2021/06/18 10:29:00;;;;;;;14.82;10.68;;;;;;;-139.48;100.00;61774.03;5059335;28;20047;-69
2021/06/18 10:31:48;;;;;;;14.25;9.00;;;;;;;-139.48;100.00;61774.03;5073363;28;20047;-69
2021/06/18 10:34:39;;;;;;;16.08;8.93;;;;;;;-139.48;100.00;61774.03;5074224;28;20083;-70
2021/06/18 10:37:25;;;;;;;10.50;9.02;;;;;;;-139.48;100.00;61774.03;5073615;28;20052;-69
2021/06/18 10:40:11;;;;;;;10.73;8.30;;;;;;;-139.48;100.00;61774.03;5073415;28;20083;-70
2021/06/18 10:43:12;;;;;;;9.93;8.73;;;;;;;-139.48;100.00;61774.03;5074157;28;20114;-68
2021/06/18 10:45:59;;;;;;;12.50;8.63;;;;;;;-139.48;100.00;61774.03;5074418;28;20512;-69
2021/06/18 10:48:49;;;;;;;8.88;7.97;;;;;;;-139.48;100.00;61774.03;5073536;28;20090;-68
2021/06/18 10:51:37;;;;;;;12.00;8.38;;;;;;;-139.48;100.00;61774.03;5073029;28;20101;-69
2021/06/18 10:54:45;;;;;;;8.75;7.85;;;;;;;-139.48;100.00;61774.03;5073868;28;20113;-69
2021/06/18 10:57:30;;;;;;;13.60;8.63;;;;;;;-139.48;100.00;61774.03;5074170;28;20106;-69
2021/06/18 11:00:23;;;;;;;14.85;9.30;;;;;;;-139.48;100.00;61774.03;5073011;28;20083;-69
2021/06/18 11:03:06;;;;;;;15.07;8.65;;;;;;;-139.48;100.00;61774.03;5058720;28;20504;-69
2021/06/18 11:05:50;;;;;;;20.60;8.40;;;;;;;-139.48;100.00;61774.03;5058910;28;20069;-69
2021/06/18 11:08:45;;;;;;;12.52;8.70;;;;;;;-139.48;100.00;61774.03;5073980;28;20093;-69
2021/06/18 11:11:29;;;;;;;14.43;8.57;;;;;;;-139.48;100.00;61774.03;5072585;28;20045;-69
2021/06/18 11:14:13;;;;;;;10.63;8.05;;;;;;;-139.48;100.00;61774.03;5058595;28;20056;-69
2021/06/18 11:16:57;;;;;;;9.63;8.18;;;;;;;-139.48;100.00;61774.03;5073570;28;20078;-69
2021/06/18 11:19:50;;;;;;;14.07;9.02;;;;;;;-139.48;100.00;61774.03;5072664;28;20189;-69
2021/06/18 11:22:46;;;;;;;9.45;8.38;;;;;;;-139.48;100.00;61774.03;5073744;28;20043;-69
2021/06/18 11:25:55;;;;;;;13.73;8.93;;;;;;;-139.48;100.00;61774.03;5072323;28;20097;-70
2021/06/18 11:28:41;;;;;;;12.88;8.98;;;;;;;-139.48;100.00;61774.03;5072573;28;20536;-70
2021/06/18 11:31:43;;;;;;;16.67;9.07;;;;;;;-139.48;100.00;61774.03;5072827;28;20068;-69
2021/06/18 11:34:28;;;;;;;11.32;8.43;;;;;;;-139.48;100.00;61774.03;5073240;28;20047;-70
2021/06/18 11:37:31;;;;;;;10.65;8.07;;;;;;;-139.48;100.00;61774.03;5072524;28;20048;-69
2021/06/18 11:40:15;;;;;;;9.50;8.57;;;;;;;-139.48;100.00;61774.03;5072417;28;20520;-69
2021/06/18 11:42:59;;;;;;;11.27;8.55;;;;;;;-139.48;100.00;61774.03;5072673;28;20085;-70
2021/06/18 11:45:44;;;;;;;15.02;8.98;;;;;;;-139.48;100.00;61774.03;5072124;28;20467;-69
2021/06/18 11:48:28;;;;;;;10.98;8.75;;;;;;;-139.48;100.00;61774.03;5072107;28;20067;-70
2021/06/18 11:51:23;;;;;;;9.85;8.90;;;;;;;-139.48;100.00;61774.03;5072310;28;20052;-70
2021/06/18 11:54:07;;;;;;;9.55;8.65;;;;;;;-139.48;100.00;61774.03;5071977;28;20083;-70
2021/06/18 11:56:58;;;;;;;9.77;8.88;;;;;;;-139.48;100.00;61774.03;5072290;28;20102;-70
2021/06/18 11:59:50;;;;;;;14.00;9.38;;;;;;;-139.48;100.00;61774.03;5057213;28;20097;-69
2021/06/18 12:02:34;;;;;;;9.80;8.77;;;;;;;-139.48;100.00;61774.03;5072039;28;20086;-69
2021/06/18 12:05:19;;;;;;;11.55;9.10;;;;;;;-139.48;100.00;61774.03;5058427;28;20555;-69
2021/06/18 12:08:14;;;;;;;14.25;9.05;;;;;;;-139.48;100.00;61774.03;5072529;28;20121;-69
2021/06/18 12:10:58;;;;;;;10.82;8.55;;;;;;;-139.48;100.00;61774.03;5072083;28;20105;-70
2021/06/18 12:13:50;;;;;;;9.65;8.80;;;;;;;-139.48;100.00;61774.03;5072252;28;20048;-70
2021/06/18 12:16:36;;;;;;;11.98;8.73;;;;;;;-139.48;100.00;61774.03;5072091;28;20102;-70
2021/06/18 12:19:48;;;;;;;10.32;8.73;;;;;;;-139.48;100.00;61774.03;5072046;28;20109;-69
2021/06/18 12:22:34;;;;;;;11.48;8.68;;;;;;;-139.48;100.00;61774.03;5072099;28;20047;-69
2021/06/18 12:25:18;;;;;;;11.85;8.70;;;;;;;-139.48;100.00;61774.03;5073033;28;20055;-70
2021/06/18 12:28:03;;;;;;;10.82;8.93;;;;;;;-139.48;100.00;61774.03;5072230;28;20067;-70
2021/06/18 12:30:48;;;;;;;12.73;9.23;;;;;;;-139.48;100.00;61774.03;5072628;28;20098;-69